sensor_id;sensor_type;location;lat;lon;timestamp;pressure;altitude;pressure_sealevel;temperature;humidity
9035;BME280;4552;43.422;24.592;2024-01-10T00:15:01;101687.81;;;-4.24;100.00
9035;BME280;4552;43.422;24.592;2024-01-10T00:17:28;101682.50;;;-4.39;100.00
9035;BME280;4552;43.422;24.592;2024-01-10T00:19:55;101688.69;;;-4.35;100.00
9035;BME280;4552;43.422;24.592;2024-01-10T01:01:33;101699.72;;;-5.69;100.00
9035;BME280;4552;43.422;24.592;2024-01-10T01:04:00;101677.72;;;-5.78;100.00
9035;BME280;4552;43.422;24.592;2024-01-10T01:06:27;101680.25;;;-5.78;100.00
9035;BME280;4552;43.422;24.592;2024-01-10T01:08:53;101676.44;;;-5.73;100.00
9035;BME280;4552;43.422;24.592;2024-01-10T01:11:20;101679.72;;;-5.74;100.00
9035;BME280;4552;43.422;24.592;2024-01-10T01:13:48;101674.16;;;-5.80;100.00
9035;BME280;4552;43.422;24.592;2024-01-10T01:16:15;101687.00;;;-5.79;100.00
9035;BME280;4552;43.422;24.592;2024-01-10T01:18:44;101682.38;;;-5.84;100.00
9035;BME280;4552;43.422;24.592;2024-01-10T01:21:11;101689.13;;;-5.85;100.00
9035;BME280;4552;43.422;24.592;2024-01-10T01:23:41;101690.03;;;-5.73;100.00
9035;BME280;4552;43.422;24.592;2024-01-10T01:26:25;101679.38;;;-5.79;100.00
9035;BME280;4552;43.422;24.592;2024-01-10T01:28:52;101662.50;;;-5.88;100.00
9035;BME280;4552;43.422;24.592;2024-01-10T01:31:22;101672.63;;;-5.78;100.00
9035;BME280;4552;43.422;24.592;2024-01-10T01:33:51;101671.84;;;-5.77;100.00
9035;BME280;4552;43.422;24.592;2024-01-10T01:40:14;101683.41;;;-5.92;100.00
9035;BME280;4552;43.422;24.592;2024-01-10T01:42:41;101669.41;;;-5.87;100.00
9035;BME280;4552;43.422;24.592;2024-01-10T01:45:08;101658.41;;;-5.86;100.00
9035;BME280;4552;43.422;24.592;2024-01-10T01:47:42;101657.75;;;-5.84;100.00
9035;BME280;4552;43.422;24.592;2024-01-10T01:50:13;101665.53;;;-5.82;100.00
9035;BME280;4552;43.422;24.592;2024-01-10T01:52:40;101674.38;;;-5.77;100.00
9035;BME280;4552;43.422;24.592;2024-01-10T01:55:08;101662.97;;;-5.82;100.00
9035;BME280;4552;43.422;24.592;2024-01-10T01:57:37;101662.00;;;-5.94;100.00
9035;BME280;4552;43.422;24.592;2024-01-10T02:00:05;101652.44;;;-6.18;100.00
9035;BME280;4552;43.422;24.592;2024-01-10T02:02:34;101658.03;;;-6.12;100.00
9035;BME280;4552;43.422;24.592;2024-01-10T02:05:02;101647.81;;;-6.02;100.00
9035;BME280;4552;43.422;24.592;2024-01-10T02:07:31;101648.16;;;-5.98;100.00
9035;BME280;4552;43.422;24.592;2024-01-10T02:09:58;101626.31;;;-6.16;100.00
9035;BME280;4552;43.422;24.592;2024-01-10T02:12:26;101638.75;;;-6.30;100.00
9035;BME280;4552;43.422;24.592;2024-01-10T02:14:53;101632.91;;;-6.39;100.00
9035;BME280;4552;43.422;24.592;2024-01-10T02:17:20;101634.88;;;-6.57;100.00
9035;BME280;4552;43.422;24.592;2024-01-10T02:19:47;101642.13;;;-6.51;100.00
9035;BME280;4552;43.422;24.592;2024-01-10T02:29:07;101637.31;;;-6.78;100.00
9035;BME280;4552;43.422;24.592;2024-01-10T02:31:35;101620.81;;;-6.93;100.00
9035;BME280;4552;43.422;24.592;2024-01-10T02:34:02;101627.19;;;-6.88;100.00
9035;BME280;4552;43.422;24.592;2024-01-10T02:36:29;101610.66;;;-6.93;100.00
9035;BME280;4552;43.422;24.592;2024-01-10T02:38:56;101631.25;;;-6.80;100.00
9035;BME280;4552;43.422;24.592;2024-01-10T02:41:23;101615.97;;;-6.80;100.00
9035;BME280;4552;43.422;24.592;2024-01-10T02:44:05;101620.28;;;-6.79;100.00
9035;BME280;4552;43.422;24.592;2024-01-10T02:46:32;101626.16;;;-6.80;100.00
9035;BME280;4552;43.422;24.592;2024-01-10T02:49:00;101620.69;;;-6.85;100.00
9035;BME280;4552;43.422;24.592;2024-01-10T02:51:27;101627.47;;;-6.95;100.00
9035;BME280;4552;43.422;24.592;2024-01-10T02:53:55;101626.28;;;-6.79;100.00
9035;BME280;4552;43.422;24.592;2024-01-10T02:56:22;101625.28;;;-6.49;100.00
9035;BME280;4552;43.422;24.592;2024-01-10T02:58:50;101621.28;;;-6.67;100.00
9035;BME280;4552;43.422;24.592;2024-01-10T03:01:19;101620.28;;;-6.79;100.00
9035;BME280;4552;43.422;24.592;2024-01-10T03:03:46;101619.25;;;-6.71;100.00
9035;BME280;4552;43.422;24.592;2024-01-10T03:12:58;101624.84;;;-6.75;100.00
9035;BME280;4552;43.422;24.592;2024-01-10T03:15:25;101623.38;;;-6.83;100.00
9035;BME280;4552;43.422;24.592;2024-01-10T03:17:54;101605.94;;;-6.79;100.00
9035;BME280;4552;43.422;24.592;2024-01-10T03:20:21;101609.91;;;-6.92;100.00
9035;BME280;4552;43.422;24.592;2024-01-10T03:39:34;101601.91;;;-7.37;100.00
9035;BME280;4552;43.422;24.592;2024-01-10T03:42:02;101596.44;;;-7.42;100.00
9035;BME280;4552;43.422;24.592;2024-01-10T03:44:31;101580.94;;;-7.45;100.00
9035;BME280;4552;43.422;24.592;2024-01-10T03:46:59;101586.78;;;-7.56;100.00
9035;BME280;4552;43.422;24.592;2024-01-10T03:49:40;101600.53;;;-7.34;100.00
9035;BME280;4552;43.422;24.592;2024-01-10T03:52:08;101604.84;;;-7.33;100.00
9035;BME280;4552;43.422;24.592;2024-01-10T03:54:38;101594.66;;;-7.43;100.00
9035;BME280;4552;43.422;24.592;2024-01-10T03:57:10;101596.81;;;-7.47;100.00
9035;BME280;4552;43.422;24.592;2024-01-10T03:59:39;101609.28;;;-7.40;100.00
9035;BME280;4552;43.422;24.592;2024-01-10T04:02:07;101600.41;;;-7.35;100.00
9035;BME280;4552;43.422;24.592;2024-01-10T04:04:37;101583.22;;;-7.38;100.00
9035;BME280;4552;43.422;24.592;2024-01-10T04:10:15;101609.41;;;-7.08;100.00
9035;BME280;4552;43.422;24.592;2024-01-10T04:13:04;101592.88;;;-7.44;100.00
9035;BME280;4552;43.422;24.592;2024-01-10T04:15:45;101602.81;;;-7.27;100.00
9035;BME280;4552;43.422;24.592;2024-01-10T04:18:25;101606.13;;;-7.28;100.00
9035;BME280;4552;43.422;24.592;2024-01-10T04:21:07;101603.94;;;-7.23;100.00
9035;BME280;4552;43.422;24.592;2024-01-10T04:23:36;101618.56;;;-7.21;100.00
9035;BME280;4552;43.422;24.592;2024-01-10T04:26:07;101618.84;;;-7.28;100.00
9035;BME280;4552;43.422;24.592;2024-01-10T04:28:39;101621.63;;;-7.25;100.00
9035;BME280;4552;43.422;24.592;2024-01-10T04:31:08;101626.31;;;-7.19;100.00
9035;BME280;4552;43.422;24.592;2024-01-10T04:33:36;101624.78;;;-7.17;100.00
9035;BME280;4552;43.422;24.592;2024-01-10T04:36:05;101628.59;;;-7.12;100.00
9035;BME280;4552;43.422;24.592;2024-01-10T05:12:00;101637.84;;;-7.43;100.00
9035;BME280;4552;43.422;24.592;2024-01-10T05:14:28;101648.53;;;-7.47;100.00
9035;BME280;4552;43.422;24.592;2024-01-10T05:16:55;101644.72;;;-7.52;100.00
9035;BME280;4552;43.422;24.592;2024-01-10T05:19:22;101638.63;;;-7.44;100.00
9035;BME280;4552;43.422;24.592;2024-01-10T05:45:08;101624.91;;;-7.36;100.00
9035;BME280;4552;43.422;24.592;2024-01-10T05:47:35;101641.16;;;-7.13;100.00
9035;BME280;4552;43.422;24.592;2024-01-10T05:50:04;101645.13;;;-6.97;100.00
9035;BME280;4552;43.422;24.592;2024-01-10T06:57:44;101662.03;;;-6.87;100.00
9035;BME280;4552;43.422;24.592;2024-01-10T07:00:13;101682.13;;;-6.90;100.00
9035;BME280;4552;43.422;24.592;2024-01-10T07:02:40;101682.88;;;-6.81;100.00
9035;BME280;4552;43.422;24.592;2024-01-10T07:05:08;101681.13;;;-6.72;100.00
9035;BME280;4552;43.422;24.592;2024-01-10T07:07:35;101671.94;;;-6.70;100.00
9035;BME280;4552;43.422;24.592;2024-01-10T07:10:03;101690.63;;;-6.60;100.00
9035;BME280;4552;43.422;24.592;2024-01-10T07:12:30;101678.56;;;-6.72;100.00
9035;BME280;4552;43.422;24.592;2024-01-10T07:15:00;101676.91;;;-6.72;100.00
9035;BME280;4552;43.422;24.592;2024-01-10T08:16:36;101700.66;;;-5.13;100.00
9035;BME280;4552;43.422;24.592;2024-01-10T08:19:03;101702.91;;;-4.95;99.78
9035;BME280;4552;43.422;24.592;2024-01-10T08:21:33;101696.91;;;-4.74;99.71
9035;BME280;4552;43.422;24.592;2024-01-10T08:24:01;101679.50;;;-5.01;98.33
9035;BME280;4552;43.422;24.592;2024-01-10T08:40:00;101702.72;;;-4.42;97.77
9035;BME280;4552;43.422;24.592;2024-01-10T08:42:32;101707.72;;;-4.32;97.42
9035;BME280;4552;43.422;24.592;2024-01-10T08:45:00;101686.59;;;-4.41;97.31
9035;BME280;4552;43.422;24.592;2024-01-10T08:47:27;101702.16;;;-4.26;96.74
9035;BME280;4552;43.422;24.592;2024-01-10T08:49:56;101705.84;;;-4.11;96.42
9035;BME280;4552;43.422;24.592;2024-01-10T08:52:24;101689.25;;;-4.28;96.45
9035;BME280;4552;43.422;24.592;2024-01-10T08:54:52;101699.69;;;-4.02;96.52
9035;BME280;4552;43.422;24.592;2024-01-10T08:57:36;101695.38;;;-4.03;95.31
9035;BME280;4552;43.422;24.592;2024-01-10T09:00:05;101697.03;;;-3.92;95.38
9035;BME280;4552;43.422;24.592;2024-01-10T09:02:32;101696.47;;;-3.76;94.76
9035;BME280;4552;43.422;24.592;2024-01-10T09:05:02;101697.72;;;-3.46;94.37
9035;BME280;4552;43.422;24.592;2024-01-10T09:07:30;101686.03;;;-3.55;93.58
9035;BME280;4552;43.422;24.592;2024-01-10T09:09:57;101684.50;;;-3.53;93.01
9035;BME280;4552;43.422;24.592;2024-01-10T09:12:24;101672.72;;;-3.50;93.88
9035;BME280;4552;43.422;24.592;2024-01-10T09:14:52;101665.38;;;-3.21;93.37
9035;BME280;4552;43.422;24.592;2024-01-10T09:17:20;101681.88;;;-3.05;92.72
9035;BME280;4552;43.422;24.592;2024-01-10T09:19:47;101683.22;;;-3.10;93.02
9035;BME280;4552;43.422;24.592;2024-01-10T09:22:14;101671.53;;;-3.06;92.70
9035;BME280;4552;43.422;24.592;2024-01-10T09:24:41;101665.28;;;-3.10;93.05
9035;BME280;4552;43.422;24.592;2024-01-10T09:50:39;101658.72;;;-2.69;88.98
9035;BME280;4552;43.422;24.592;2024-01-10T10:08:16;101645.41;;;-2.76;86.79
9035;BME280;4552;43.422;24.592;2024-01-10T10:10:48;101635.09;;;-2.52;86.44
9035;BME280;4552;43.422;24.592;2024-01-10T10:13:26;101633.03;;;-2.31;85.29
9035;BME280;4552;43.422;24.592;2024-01-10T10:15:59;101632.63;;;-2.63;85.15
9035;BME280;4552;43.422;24.592;2024-01-10T10:18:27;101632.53;;;-2.52;86.17
9035;BME280;4552;43.422;24.592;2024-01-10T10:21:09;101624.53;;;-2.56;85.33
9035;BME280;4552;43.422;24.592;2024-01-10T11:40:10;101532.66;;;-1.97;79.07
9035;BME280;4552;43.422;24.592;2024-01-10T11:42:45;101536.81;;;-1.99;79.49
9035;BME280;4552;43.422;24.592;2024-01-10T11:45:36;101539.81;;;-1.78;79.57
9035;BME280;4552;43.422;24.592;2024-01-10T11:48:07;101516.38;;;-1.97;77.81
9035;BME280;4552;43.422;24.592;2024-01-10T11:50:35;101545.56;;;-1.82;77.50
9035;BME280;4552;43.422;24.592;2024-01-10T12:13:15;101514.00;;;-1.94;73.46
9035;BME280;4552;43.422;24.592;2024-01-10T12:26:45;101507.59;;;-1.45;72.02
9035;BME280;4552;43.422;24.592;2024-01-10T12:29:13;101508.09;;;-1.51;71.71
9035;BME280;4552;43.422;24.592;2024-01-10T12:51:53;101510.78;;;-1.77;76.25
9035;BME280;4552;43.422;24.592;2024-01-10T12:54:19;101509.59;;;-1.97;75.23
9035;BME280;4552;43.422;24.592;2024-01-10T12:56:46;101515.47;;;-1.85;74.57
9035;BME280;4552;43.422;24.592;2024-01-10T12:59:13;101503.19;;;-2.03;74.05
9035;BME280;4552;43.422;24.592;2024-01-10T13:05:02;101518.56;;;-1.90;74.86
9035;BME280;4552;43.422;24.592;2024-01-10T13:07:30;101502.78;;;-1.96;75.17
9035;BME280;4552;43.422;24.592;2024-01-10T13:09:59;101499.03;;;-1.88;76.02
9035;BME280;4552;43.422;24.592;2024-01-10T13:12:27;101512.44;;;-1.92;75.52
9035;BME280;4552;43.422;24.592;2024-01-10T13:36:36;101492.47;;;-1.83;73.05
9035;BME280;4552;43.422;24.592;2024-01-10T13:39:03;101501.34;;;-1.78;72.86
9035;BME280;4552;43.422;24.592;2024-01-10T13:41:31;101498.16;;;-1.74;72.37
9035;BME280;4552;43.422;24.592;2024-01-10T13:43:58;101503.00;;;-2.06;72.25
9035;BME280;4552;43.422;24.592;2024-01-10T13:49:46;101482.75;;;-2.29;71.76
9035;BME280;4552;43.422;24.592;2024-01-10T13:52:14;101491.19;;;-2.45;72.43
9035;BME280;4552;43.422;24.592;2024-01-10T13:54:42;101495.44;;;-2.45;73.31
9035;BME280;4552;43.422;24.592;2024-01-10T13:57:09;101505.69;;;-2.45;72.47
9035;BME280;4552;43.422;24.592;2024-01-10T13:59:36;101464.53;;;-2.74;72.65
9035;BME280;4552;43.422;24.592;2024-01-10T14:08:47;101484.03;;;-2.63;75.75
9035;BME280;4552;43.422;24.592;2024-01-10T14:11:15;101487.38;;;-2.64;77.26
9035;BME280;4552;43.422;24.592;2024-01-10T14:13:42;101482.84;;;-2.68;79.01
9035;BME280;4552;43.422;24.592;2024-01-10T14:16:09;101490.53;;;-2.68;80.00
9035;BME280;4552;43.422;24.592;2024-01-10T14:18:36;101490.13;;;-2.61;80.12
9035;BME280;4552;43.422;24.592;2024-01-10T14:21:03;101485.59;;;-2.65;79.74
9035;BME280;4552;43.422;24.592;2024-01-10T14:23:31;101485.41;;;-2.68;79.94
9035;BME280;4552;43.422;24.592;2024-01-10T14:25:59;101460.59;;;-2.82;79.79
9035;BME280;4552;43.422;24.592;2024-01-10T14:28:26;101480.50;;;-2.78;79.78
9035;BME280;4552;43.422;24.592;2024-01-10T14:30:53;101478.72;;;-2.66;79.64
9035;BME280;4552;43.422;24.592;2024-01-10T14:33:20;101483.75;;;-2.68;78.95
9035;BME280;4552;43.422;24.592;2024-01-10T14:35:47;101467.66;;;-2.52;79.23
9035;BME280;4552;43.422;24.592;2024-01-10T14:38:14;101474.94;;;-2.45;78.29
9035;BME280;4552;43.422;24.592;2024-01-10T14:40:41;101496.94;;;-2.62;78.38
9035;BME280;4552;43.422;24.592;2024-01-10T14:43:10;101470.66;;;-2.72;78.62
9035;BME280;4552;43.422;24.592;2024-01-10T14:45:37;101488.38;;;-2.75;79.78
9035;BME280;4552;43.422;24.592;2024-01-10T14:48:04;101479.94;;;-2.87;80.22
9035;BME280;4552;43.422;24.592;2024-01-10T14:50:32;101472.63;;;-2.94;79.68
9035;BME280;4552;43.422;24.592;2024-01-10T14:52:59;101480.69;;;-2.88;81.00
9035;BME280;4552;43.422;24.592;2024-01-10T14:55:26;101479.13;;;-2.86;81.51
9035;BME280;4552;43.422;24.592;2024-01-10T14:57:54;101479.81;;;-2.89;80.62
9035;BME280;4552;43.422;24.592;2024-01-10T15:00:23;101456.00;;;-3.14;82.46
9035;BME280;4552;43.422;24.592;2024-01-10T15:02:50;101478.16;;;-3.01;81.57
9035;BME280;4552;43.422;24.592;2024-01-10T15:05:18;101459.25;;;-3.16;81.05
9035;BME280;4552;43.422;24.592;2024-01-10T15:07:46;101482.69;;;-3.10;82.25
9035;BME280;4552;43.422;24.592;2024-01-10T15:10:15;101479.88;;;-3.26;82.70
9035;BME280;4552;43.422;24.592;2024-01-10T15:12:42;101475.34;;;-3.43;83.71
9035;BME280;4552;43.422;24.592;2024-01-10T15:15:10;101472.06;;;-3.54;83.29
9035;BME280;4552;43.422;24.592;2024-01-10T15:17:39;101460.53;;;-3.61;83.40
9035;BME280;4552;43.422;24.592;2024-01-10T15:20:07;101475.31;;;-3.57;82.92
9035;BME280;4552;43.422;24.592;2024-01-10T15:22:34;101469.50;;;-3.67;83.30
9035;BME280;4552;43.422;24.592;2024-01-10T15:25:04;101466.53;;;-3.73;84.16
9035;BME280;4552;43.422;24.592;2024-01-10T15:27:31;101464.50;;;-3.90;83.57
9035;BME280;4552;43.422;24.592;2024-01-10T15:29:58;101466.88;;;-4.05;83.82
9035;BME280;4552;43.422;24.592;2024-01-10T15:32:25;101449.19;;;-4.26;84.05
9035;BME280;4552;43.422;24.592;2024-01-10T15:34:55;101465.50;;;-4.13;83.57
9035;BME280;4552;43.422;24.592;2024-01-10T15:37:23;101457.16;;;-4.10;83.01
9035;BME280;4552;43.422;24.592;2024-01-10T15:39:50;101470.03;;;-3.84;83.24
9035;BME280;4552;43.422;24.592;2024-01-10T15:42:17;101458.03;;;-4.10;83.35
9035;BME280;4552;43.422;24.592;2024-01-10T15:44:46;101463.91;;;-4.11;83.40
9035;BME280;4552;43.422;24.592;2024-01-10T15:47:15;101471.66;;;-3.98;83.01
9035;BME280;4552;43.422;24.592;2024-01-10T15:49:42;101451.03;;;-4.12;81.58
9035;BME280;4552;43.422;24.592;2024-01-10T15:52:13;101459.31;;;-4.28;82.94
9035;BME280;4552;43.422;24.592;2024-01-10T15:54:40;101459.16;;;-4.54;83.18
9035;BME280;4552;43.422;24.592;2024-01-10T15:57:07;101461.72;;;-4.54;83.57
9035;BME280;4552;43.422;24.592;2024-01-10T15:59:34;101471.59;;;-4.47;85.00
9035;BME280;4552;43.422;24.592;2024-01-10T16:05:44;101477.84;;;-4.55;87.23
9035;BME280;4552;43.422;24.592;2024-01-10T16:08:12;101471.19;;;-4.53;86.96
9035;BME280;4552;43.422;24.592;2024-01-10T16:10:39;101467.19;;;-4.61;87.44
9035;BME280;4552;43.422;24.592;2024-01-10T16:13:07;101447.13;;;-4.68;85.68
9035;BME280;4552;43.422;24.592;2024-01-10T16:15:34;101450.00;;;-4.75;86.28
9035;BME280;4552;43.422;24.592;2024-01-10T16:18:02;101466.97;;;-4.64;86.73
9035;BME280;4552;43.422;24.592;2024-01-10T16:20:29;101462.41;;;-4.56;86.08
9035;BME280;4552;43.422;24.592;2024-01-10T16:22:56;101469.22;;;-4.68;85.51
9035;BME280;4552;43.422;24.592;2024-01-10T16:25:24;101470.88;;;-4.69;84.90
9035;BME280;4552;43.422;24.592;2024-01-10T16:27:51;101476.34;;;-4.76;84.85
9035;BME280;4552;43.422;24.592;2024-01-10T16:30:19;101449.94;;;-4.99;86.23
9035;BME280;4552;43.422;24.592;2024-01-10T16:32:46;101475.03;;;-4.94;87.01
9035;BME280;4552;43.422;24.592;2024-01-10T16:35:13;101479.19;;;-4.83;87.24
9035;BME280;4552;43.422;24.592;2024-01-10T16:37:41;101481.91;;;-4.81;88.02
9035;BME280;4552;43.422;24.592;2024-01-10T16:40:09;101466.81;;;-4.90;88.62
9035;BME280;4552;43.422;24.592;2024-01-10T16:42:38;101440.41;;;-5.02;88.89
9035;BME280;4552;43.422;24.592;2024-01-10T16:45:07;101459.94;;;-5.14;89.44
9035;BME280;4552;43.422;24.592;2024-01-10T16:47:35;101453.50;;;-5.20;90.17
9035;BME280;4552;43.422;24.592;2024-01-10T16:50:02;101472.03;;;-5.00;89.96
9035;BME280;4552;43.422;24.592;2024-01-10T16:52:30;101450.50;;;-5.03;89.20
9035;BME280;4552;43.422;24.592;2024-01-10T16:54:57;101468.59;;;-5.12;90.17
9035;BME280;4552;43.422;24.592;2024-01-10T16:57:24;101477.44;;;-5.07;89.92
9035;BME280;4552;43.422;24.592;2024-01-10T16:59:53;101477.34;;;-4.97;89.37
9035;BME280;4552;43.422;24.592;2024-01-10T17:59:14;101448.34;;;-6.23;96.51
9035;BME280;4552;43.422;24.592;2024-01-10T18:01:53;101429.09;;;-6.19;96.84
9035;BME280;4552;43.422;24.592;2024-01-10T18:04:22;101447.16;;;-6.16;96.14
9035;BME280;4552;43.422;24.592;2024-01-10T18:06:50;101455.38;;;-6.09;96.65
9035;BME280;4552;43.422;24.592;2024-01-10T18:09:17;101437.16;;;-6.25;96.16
9035;BME280;4552;43.422;24.592;2024-01-10T18:11:45;101442.66;;;-6.30;96.66
9035;BME280;4552;43.422;24.592;2024-01-10T18:14:14;101429.63;;;-6.23;96.28
9035;BME280;4552;43.422;24.592;2024-01-10T18:16:41;101438.97;;;-6.12;95.69
9035;BME280;4552;43.422;24.592;2024-01-10T18:19:08;101416.28;;;-6.42;95.64
9035;BME280;4552;43.422;24.592;2024-01-10T18:21:37;101413.16;;;-6.50;95.59
9035;BME280;4552;43.422;24.592;2024-01-10T18:24:04;101438.25;;;-6.33;95.37
9035;BME280;4552;43.422;24.592;2024-01-10T18:26:31;101420.78;;;-6.28;94.98
9035;BME280;4552;43.422;24.592;2024-01-10T18:28:58;101425.16;;;-6.37;95.09
9035;BME280;4552;43.422;24.592;2024-01-10T19:10:01;101417.47;;;-6.70;97.78
9035;BME280;4552;43.422;24.592;2024-01-10T19:12:28;101415.22;;;-6.77;96.99
9035;BME280;4552;43.422;24.592;2024-01-10T19:14:55;101427.16;;;-6.76;97.35
9035;BME280;4552;43.422;24.592;2024-01-10T19:17:22;101424.13;;;-6.82;97.01
9035;BME280;4552;43.422;24.592;2024-01-10T19:19:51;101408.53;;;-6.87;97.37
9035;BME280;4552;43.422;24.592;2024-01-10T19:22:18;101426.09;;;-6.68;97.42
9035;BME280;4552;43.422;24.592;2024-01-10T19:24:47;101423.25;;;-6.61;97.11
9035;BME280;4552;43.422;24.592;2024-01-10T19:27:16;101406.47;;;-6.59;96.23
9035;BME280;4552;43.422;24.592;2024-01-10T19:29:48;101415.38;;;-6.64;96.35
9035;BME280;4552;43.422;24.592;2024-01-10T19:32:18;101417.19;;;-6.63;96.59
9035;BME280;4552;43.422;24.592;2024-01-10T19:34:45;101417.22;;;-6.73;96.33
9035;BME280;4552;43.422;24.592;2024-01-10T19:37:12;101413.94;;;-6.72;97.52
9035;BME280;4552;43.422;24.592;2024-01-10T19:39:41;101393.72;;;-6.81;97.02
9035;BME280;4552;43.422;24.592;2024-01-10T19:42:10;101414.53;;;-6.65;97.42
9035;BME280;4552;43.422;24.592;2024-01-10T19:44:39;101411.78;;;-6.56;97.85
9035;BME280;4552;43.422;24.592;2024-01-10T20:14:47;101409.41;;;-6.86;97.21
9035;BME280;4552;43.422;24.592;2024-01-10T20:27:09;101403.81;;;-7.56;97.30
9035;BME280;4552;43.422;24.592;2024-01-10T20:29:52;101385.00;;;-7.48;96.92
9035;BME280;4552;43.422;24.592;2024-01-10T20:44:14;101385.44;;;-7.32;97.39
9035;BME280;4552;43.422;24.592;2024-01-10T20:50:18;101378.72;;;-7.41;97.71
9035;BME280;4552;43.422;24.592;2024-01-10T20:53:00;101379.16;;;-7.47;97.79
9035;BME280;4552;43.422;24.592;2024-01-10T20:55:29;101389.91;;;-7.39;97.57
9035;BME280;4552;43.422;24.592;2024-01-10T20:57:58;101362.56;;;-7.63;97.28
9035;BME280;4552;43.422;24.592;2024-01-10T21:00:40;101383.81;;;-7.41;97.93
9035;BME280;4552;43.422;24.592;2024-01-10T21:03:21;101386.28;;;-7.53;97.60
9035;BME280;4552;43.422;24.592;2024-01-10T21:06:01;101383.56;;;-7.44;98.04
9035;BME280;4552;43.422;24.592;2024-01-10T21:08:30;101387.25;;;-7.41;97.62
9035;BME280;4552;43.422;24.592;2024-01-10T21:11:00;101376.84;;;-7.44;97.51
9035;BME280;4552;43.422;24.592;2024-01-10T21:13:29;101370.06;;;-7.65;96.85
